Time;durP1;ratioP1;P1;durP2;ratioP2;P2;SDS_P1;SDS_P2;PMS_P1;PMS_P2;Temp;Humidity;BMP_temperature;BMP_pressure;BME280_temperature;BME280_humidity;BME280_pressure;Samples;Min_cycle;Max_cycle;Signal;HPM_P1;HPM_P2
2022/07/28 00:02:14;;;;;;;3.67;1.30;;;;;;;14.91;100.00;100837.03;5073170;28;20024;-70
2022/07/28 00:04:40;;;;;;;2.78;1.30;;;;;;;14.87;100.00;100819.66;5059801;28;20033;-70
2022/07/28 00:07:05;;;;;;;5.68;1.85;;;;;;;14.91;100.00;100834.38;5055232;28;20430;-71
2022/07/28 00:09:30;;;;;;;4.80;1.65;;;;;;;14.92;100.00;100842.25;5054093;28;20025;-71
2022/07/28 00:11:56;;;;;;;2.95;1.35;;;;;;;14.95;100.00;100841.19;5071330;28;20112;-72
2022/07/28 00:14:22;;;;;;;3.53;1.42;;;;;;;14.94;100.00;100834.22;5062079;28;20028;-72
2022/07/28 00:16:48;;;;;;;4.18;1.65;;;;;;;14.80;100.00;100812.09;5072472;28;20052;-72
2022/07/28 00:19:13;;;;;;;4.20;1.52;;;;;;;14.88;100.00;100818.69;5072955;28;20135;-70
2022/07/28 00:21:38;;;;;;;3.63;1.30;;;;;;;14.93;100.00;100830.72;5094062;28;20028;-70
2022/07/28 00:24:04;;;;;;;4.75;1.58;;;;;;;14.86;100.00;100820.59;5073890;28;20021;-70
2022/07/28 00:26:30;;;;;;;3.00;1.38;;;;;;;14.84;100.00;100818.03;5076846;28;20024;-70
2022/07/28 00:28:55;;;;;;;4.80;1.73;;;;;;;14.96;100.00;100837.63;5073847;28;20028;-70
2022/07/28 00:31:20;;;;;;;3.00;1.35;;;;;;;14.92;100.00;100829.00;5064356;28;20471;-70
2022/07/28 00:33:46;;;;;;;3.60;1.52;;;;;;;14.90;100.00;100830.91;5082515;28;20048;-70
2022/07/28 00:36:12;;;;;;;4.25;1.50;;;;;;;14.83;100.00;100826.94;5074067;28;20063;-70
2022/07/28 00:38:37;;;;;;;5.97;1.23;;;;;;;14.84;100.00;100828.63;5075734;28;20048;-70
2022/07/28 00:41:12;;;;;;;3.47;1.38;;;;;;;14.90;100.00;100840.66;5079907;28;20032;-70
2022/07/28 00:43:38;;;;;;;;;;;;;;;14.88;100.00;100835.44;5080254;28;20024;-70
2022/07/28 00:46:03;;;;;;;4.57;1.50;;;;;;;14.80;100.00;100829.78;5079423;28;19908;-70
2022/07/28 00:48:29;;;;;;;4.13;1.67;;;;;;;14.84;100.00;100836.56;5062132;28;20021;-70
2022/07/28 00:50:54;;;;;;;3.58;1.33;;;;;;;14.72;100.00;100821.44;5068949;28;20450;-70
2022/07/28 00:53:20;;;;;;;3.28;0.95;;;;;;;14.77;100.00;100830.78;5071928;28;20479;-70
2022/07/28 00:55:46;;;;;;;7.75;1.40;;;;;;;14.77;100.00;100825.50;5063795;28;20103;-70
2022/07/28 00:58:11;;;;;;;1.92;1.02;;;;;;;14.72;100.00;100819.66;5072612;28;20157;-70
2022/07/28 01:00:37;;;;;;;3.08;1.40;;;;;;;14.73;100.00;100820.50;5051812;28;20086;-70
2022/07/28 01:03:03;;;;;;;3.58;1.35;;;;;;;14.67;100.00;100820.84;5056125;28;20032;-70
2022/07/28 01:05:36;;;;;;;3.42;1.23;;;;;;;14.69;100.00;100826.91;5092055;28;20028;-70
2022/07/28 01:08:20;;;;;;;2.72;1.48;;;;;;;14.67;100.00;100829.66;5077657;28;20032;-70
2022/07/28 01:11:05;;;;;;;7.50;2.03;;;;;;;14.63;100.00;100828.13;5083809;28;20653;-69
2022/07/28 01:14:07;;;;;;;4.32;1.88;;;;;;;14.60;100.00;100814.25;5059897;28;20028;-70
2022/07/28 01:16:34;;;;;;;5.72;1.77;;;;;;;14.58;100.00;100821.41;5061519;28;20036;-70
2022/07/28 01:19:04;;;;;;;7.97;1.70;;;;;;;14.52;100.00;100805.91;5068310;28;20029;-70
2022/07/28 01:21:33;;;;;;;5.90;1.63;;;;;;;14.51;100.00;100813.00;5058474;28;20060;-69
2022/07/28 01:24:01;;;;;;;2.10;1.02;;;;;;;14.49;100.00;100816.69;5073616;28;20034;-70
2022/07/28 01:26:51;;;;;;;2.67;1.30;;;;;;;14.48;100.00;100812.34;5072643;28;20028;-69
2022/07/28 01:29:33;;;;;;;2.90;1.40;;;;;;;14.37;100.00;100801.53;5071993;28;20028;-70
2022/07/28 01:32:03;;;;;;;6.97;1.80;;;;;;;14.41;100.00;100808.34;5085238;28;20034;-70
2022/07/28 01:34:33;;;;;;;5.03;1.90;;;;;;;14.37;100.00;100809.47;5072379;28;20040;-70
2022/07/28 01:37:09;;;;;;;5.97;1.90;;;;;;;14.24;100.00;100789.00;5089695;28;20031;-70
2022/07/28 01:39:36;;;;;;;3.05;1.45;;;;;;;14.37;100.00;100807.69;5054198;28;20415;-70
2022/07/28 01:42:04;;;;;;;4.72;1.77;;;;;;;14.32;100.00;100805.28;5082912;28;20035;-70
2022/07/28 01:44:31;;;;;;;9.65;2.33;;;;;;;14.32;100.00;100804.44;5063556;28;20029;-70
2022/07/28 01:46:57;;;;;;;3.08;1.42;;;;;;;14.05;100.00;100764.63;5078567;28;20398;-70
2022/07/28 01:49:23;;;;;;;4.18;1.45;;;;;;;14.18;100.00;100783.25;5073865;28;20031;-70
2022/07/28 01:51:50;;;;;;;5.82;2.28;;;;;;;14.18;100.00;100794.66;5082712;28;20032;-70
2022/07/28 01:54:15;;;;;;;4.55;1.60;;;;;;;14.14;100.00;100795.78;5087348;28;20016;-70
2022/07/28 01:56:41;;;;;;;4.45;1.80;;;;;;;14.14;100.00;100806.34;5062254;28;20032;-70
2022/07/28 01:59:08;;;;;;;6.68;1.77;;;;;;;14.04;100.00;100778.75;5060242;28;20024;-70
2022/07/28 02:01:36;;;;;;;4.22;1.35;;;;;;;14.08;100.00;100790.88;5047010;28;20037;-70
2022/07/28 02:04:03;;;;;;;4.80;1.80;;;;;;;14.04;100.00;100794.63;5059519;28;20083;-70
2022/07/28 02:06:29;;;;;;;2.97;1.40;;;;;;;13.99;100.00;100796.66;5066634;28;20368;-69
2022/07/28 02:08:57;;;;;;;2.97;1.83;;;;;;;13.98;100.00;100788.84;5070687;28;20032;-70
2022/07/28 02:11:39;;;;;;;5.72;1.70;;;;;;;13.87;100.00;100770.09;5054831;28;20082;-70
2022/07/28 02:14:23;;;;;;;4.32;1.77;;;;;;;13.95;100.00;100789.03;5061852;28;20036;-70
2022/07/28 02:17:00;;;;;;;;;;;;;;;13.94;100.00;100782.03;5050012;28;20029;-71
2022/07/28 02:19:27;;;;;;;8.23;1.52;;;;;;;13.69;100.00;100741.16;5089720;28;19913;-70
2022/07/28 02:21:53;;;;;;;4.43;1.83;;;;;;;13.76;100.00;100761.00;5075959;28;20029;-70
2022/07/28 02:24:21;;;;;;;3.50;1.50;;;;;;;13.85;100.00;100780.78;5060999;28;20025;-70
2022/07/28 02:26:50;;;;;;;3.30;1.23;;;;;;;13.80;100.00;100769.63;5073553;28;20119;-70
2022/07/28 02:29:17;;;;;;;3.60;1.17;;;;;;;13.81;100.00;100771.31;5090930;28;20031;-70
2022/07/28 02:31:50;;;;;;;5.78;1.25;;;;;;;13.74;100.00;100764.69;5091139;28;20104;-70
2022/07/28 02:34:19;;;;;;;4.53;1.55;;;;;;;13.64;100.00;100747.66;5063012;28;20024;-70
2022/07/28 02:37:03;;;;;;;2.83;1.42;;;;;;;13.65;100.00;100749.38;5088128;28;20028;-70
2022/07/28 02:39:35;;;;;;;5.57;1.83;;;;;;;13.60;100.00;100741.72;5057795;28;20036;-70
2022/07/28 02:42:04;;;;;;;2.95;1.58;;;;;;;13.63;100.00;100746.81;5074391;28;20021;-70
2022/07/28 02:44:36;;;;;;;3.45;1.50;;;;;;;13.65;100.00;100755.47;5075181;28;20021;-70
2022/07/28 02:47:04;;;;;;;4.53;1.30;;;;;;;13.59;100.00;100744.41;5061147;28;20036;-70
2022/07/28 02:49:31;;;;;;;7.82;2.03;;;;;;;13.52;100.00;100741.28;5070154;28;20033;-70
2022/07/28 02:51:58;;;;;;;5.88;1.23;;;;;;;13.43;100.00;100727.75;5099586;27;20035;-70
2022/07/28 02:54:26;;;;;;;3.30;1.45;;;;;;;13.49;100.00;100754.66;5059673;28;20104;-70
2022/07/28 02:56:53;;;;;;;8.48;1.70;;;;;;;13.46;100.00;100759.25;5065342;28;20475;-70
2022/07/28 02:59:19;;;;;;;3.10;1.55;;;;;;;13.43;100.00;100764.72;5075947;28;20035;-70
2022/07/28 03:01:45;;;;;;;3.40;1.60;;;;;;;13.36;100.00;100761.56;5063474;28;20086;-70
2022/07/28 03:04:13;;;;;;;3.35;1.40;;;;;;;13.28;100.00;100755.88;5076541;28;20020;-70
2022/07/28 03:06:39;;;;;;;11.05;1.45;;;;;;;13.29;100.00;100758.41;5071175;28;20113;-71
2022/07/28 03:09:07;;;;;;;3.67;1.50;;;;;;;13.26;100.00;100755.94;5074828;28;20025;-71
2022/07/28 03:11:33;;;;;;;5.63;1.83;;;;;;;13.19;100.00;100749.31;5061906;28;20383;-71
2022/07/28 03:13:58;;;;;;;5.15;1.45;;;;;;;13.05;100.00;100737.75;5060649;28;20025;-71
2022/07/28 03:16:24;;;;;;;5.35;1.50;;;;;;;13.15;100.00;100760.97;5063972;28;20029;-71
2022/07/28 03:18:49;;;;;;;4.95;1.45;;;;;;;13.07;100.00;100751.75;5058382;28;20025;-71
2022/07/28 03:21:14;;;;;;;5.38;1.40;;;;;;;13.07;100.00;100752.59;5072084;28;20032;-71
2022/07/28 03:23:46;;;;;;;3.20;1.52;;;;;;;12.76;100.00;100705.94;5063139;28;20028;-71
2022/07/28 03:26:18;;;;;;;4.60;1.83;;;;;;;12.90;100.00;100736.84;5074043;28;20028;-71
2022/07/28 03:28:44;;;;;;;7.13;2.17;;;;;;;12.99;100.00;100760.06;5070886;28;20108;-71
2022/07/28 03:31:11;;;;;;;4.53;1.67;;;;;;;12.90;100.00;100750.03;5073360;28;20035;-71
2022/07/28 03:33:37;;;;;;;3.92;1.35;;;;;;;12.91;100.00;100762.25;5052226;28;20021;-71
2022/07/28 03:36:07;;;;;;;4.55;1.60;;;;;;;12.84;100.00;100754.78;5092573;28;20387;-71
2022/07/28 03:38:36;;;;;;;3.25;1.67;;;;;;;12.84;100.00;100762.69;5057723;28;20484;-70
2022/07/28 03:41:02;;;;;;;5.22;2.20;;;;;;;12.81;100.00;100755.78;5092056;28;20413;-70
2022/07/28 03:43:28;;;;;;;3.50;1.40;;;;;;;12.88;100.00;100767.69;5081197;28;20364;-70
2022/07/28 03:45:53;;;;;;;5.43;1.30;;;;;;;12.83;100.00;100753.94;5041857;28;20023;-70
2022/07/28 03:48:22;;;;;;;3.33;1.48;;;;;;;12.84;100.00;100760.06;5063723;28;20112;-71
2022/07/28 03:50:47;;;;;;;5.60;1.45;;;;;;;12.86;100.00;100763.44;5056332;28;20115;-70
2022/07/28 03:53:19;;;;;;;3.85;1.50;;;;;;;12.53;100.00;100714.22;5060915;28;20024;-70
2022/07/28 03:55:49;;;;;;;3.63;1.60;;;;;;;12.86;100.00;100764.31;5067861;28;20448;-70
2022/07/28 03:58:15;;;;;;;4.10;1.88;;;;;;;12.86;100.00;100764.31;5072637;28;20029;-70
2022/07/28 04:00:41;;;;;;;4.22;1.63;;;;;;;12.81;100.00;100755.78;5063948;28;20056;-70
2022/07/28 04:03:06;;;;;;;4.28;2.22;;;;;;;12.77;100.00;100749.00;5068491;28;20028;-70
2022/07/28 04:05:31;;;;;;;4.28;1.60;;;;;;;12.81;100.00;100745.22;5063704;28;20107;-71
2022/07/28 04:07:57;;;;;;;3.08;1.50;;;;;;;12.85;100.00;100754.69;5054044;28;20036;-71
2022/07/28 04:10:22;;;;;;;4.28;1.63;;;;;;;12.88;100.00;100757.16;5060481;28;20436;-71
2022/07/28 04:12:51;;;;;;;3.80;1.58;;;;;;;12.88;100.00;100754.50;5055305;28;20029;-71
2022/07/28 04:15:16;;;;;;;3.30;1.27;;;;;;;12.85;100.00;100741.50;5057238;28;20368;-70
2022/07/28 04:17:42;;;;;;;3.42;1.42;;;;;;;12.92;100.00;100742.88;5074026;28;20035;-70
2022/07/28 04:20:09;;;;;;;3.25;1.33;;;;;;;12.72;100.00;100706.19;5063648;28;20029;-69
2022/07/28 04:22:34;;;;;;;6.50;1.90;;;;;;;13.04;100.00;100750.13;5061404;28;20494;-70
2022/07/28 04:25:03;;;;;;;4.85;1.88;;;;;;;13.07;100.00;100749.97;5067435;28;20029;-70
2022/07/28 04:27:28;;;;;;;7.47;2.13;;;;;;;12.98;100.00;100731.97;5074051;28;20047;-70
2022/07/28 04:29:54;;;;;;;4.15;1.63;;;;;;;13.01;100.00;100737.09;5071701;28;20028;-70
2022/07/28 04:32:19;;;;;;;3.20;1.33;;;;;;;13.11;100.00;100754.16;5041581;28;20112;-70
2022/07/28 04:34:45;;;;;;;2.75;1.00;;;;;;;13.15;100.00;100757.47;5063393;28;20392;-70
2022/07/28 04:37:10;;;;;;;3.92;1.80;;;;;;;13.05;100.00;100743.03;5081800;28;20024;-70
2022/07/28 04:39:36;;;;;;;3.20;1.65;;;;;;;13.05;100.00;100743.03;5065348;28;20083;-70
2022/07/28 04:42:01;;;;;;;4.05;1.85;;;;;;;12.87;100.00;100708.00;5078112;28;20034;-70
2022/07/28 04:44:27;;;;;;;5.28;1.77;;;;;;;13.08;100.00;100742.91;5075693;28;20024;-70
2022/07/28 04:46:52;;;;;;;4.20;1.55;;;;;;;13.09;100.00;100740.19;5090735;28;20052;-72
2022/07/28 04:49:17;;;;;;;5.10;1.88;;;;;;;13.18;100.00;100759.97;5070058;28;20032;-70
2022/07/28 04:51:48;;;;;;;3.65;1.58;;;;;;;13.19;100.00;100751.94;5069167;28;20058;-70
2022/07/28 04:54:14;;;;;;;5.95;1.60;;;;;;;13.24;100.00;100759.63;5073309;28;20056;-70
2022/07/28 04:56:39;;;;;;;2.88;1.38;;;;;;;13.24;100.00;100751.69;5069222;28;20108;-70
2022/07/28 04:59:04;;;;;;;4.72;1.60;;;;;;;13.22;100.00;100748.28;5080114;28;20028;-70
2022/07/28 05:01:30;;;;;;;3.72;1.45;;;;;;;13.25;100.00;100740.19;5060452;28;20023;-70
2022/07/28 05:03:55;;;;;;;7.78;2.03;;;;;;;13.27;100.00;100740.97;5079034;28;20444;-70
2022/07/28 05:06:20;;;;;;;3.75;1.65;;;;;;;13.34;100.00;100747.63;5073364;28;20052;-70
2022/07/28 05:08:46;;;;;;;3.78;1.52;;;;;;;13.40;100.00;100751.69;5070594;28;20039;-71
2022/07/28 05:11:11;;;;;;;5.47;1.67;;;;;;;13.32;100.00;100734.50;5079865;28;20462;-70
2022/07/28 05:13:36;;;;;;;4.97;1.58;;;;;;;13.41;100.00;100746.34;5060463;28;20043;-70
2022/07/28 05:16:02;;;;;;;4.07;1.58;;;;;;;13.42;100.00;100747.19;5067577;28;20486;-70
2022/07/28 05:18:28;;;;;;;4.88;1.45;;;;;;;13.29;100.00;100728.53;5069895;28;20062;-70
2022/07/28 05:20:54;;;;;;;6.63;1.92;;;;;;;13.27;100.00;100710.16;5076728;28;20040;-71
2022/07/28 05:23:19;;;;;;;3.85;1.30;;;;;;;13.53;100.00;100758.84;5057606;28;20047;-70
2022/07/28 05:25:45;;;;;;;4.10;1.70;;;;;;;13.58;100.00;100748.88;5084219;28;20489;-70
2022/07/28 05:28:10;;;;;;;7.00;1.90;;;;;;;13.53;100.00;100736.84;5073306;28;20036;-70
2022/07/28 05:30:35;;;;;;;4.15;1.73;;;;;;;13.53;100.00;100736.84;5069657;28;20150;-70
2022/07/28 05:33:01;;;;;;;3.53;1.70;;;;;;;13.67;100.00;100750.97;5080441;28;20414;-70
2022/07/28 05:35:27;;;;;;;4.70;2.10;;;;;;;13.75;100.00;100756.66;5076472;28;20032;-71
2022/07/28 05:37:52;;;;;;;3.88;1.50;;;;;;;13.78;100.00;100760.94;5062961;28;20068;-70
2022/07/28 05:40:18;;;;;;;4.55;2.08;;;;;;;13.48;100.00;100723.09;5066581;28;20463;-70
2022/07/28 05:42:46;;;;;;;4.57;1.90;;;;;;;13.84;100.00;100768.50;5054681;28;20021;-71
2022/07/28 05:45:12;;;;;;;6.40;2.22;;;;;;;13.83;100.00;100756.22;5069610;28;20028;-71
2022/07/28 05:47:45;;;;;;;4.13;1.58;;;;;;;13.80;100.00;100751.13;5067601;28;20028;-70
2022/07/28 05:50:12;;;;;;;3.33;1.42;;;;;;;13.80;100.00;100737.91;5092532;27;20464;-71
2022/07/28 05:52:37;;;;;;;6.25;1.70;;;;;;;13.92;100.00;100753.06;5059911;28;20099;-70
2022/07/28 05:55:04;;;;;;;5.60;1.92;;;;;;;13.92;100.00;100755.72;5070287;28;20154;-70
2022/07/28 05:57:30;;;;;;;4.47;1.83;;;;;;;13.86;100.00;100742.84;5053049;28;20020;-70
2022/07/28 05:59:55;;;;;;;3.70;2.00;;;;;;;13.75;100.00;100726.78;5050993;28;20090;-70
2022/07/28 06:02:20;;;;;;;4.82;2.00;;;;;;;13.91;100.00;100750.50;5053754;28;20436;-70
2022/07/28 06:04:46;;;;;;;5.25;1.80;;;;;;;13.93;100.00;100749.47;5059612;28;20036;-70
2022/07/28 06:07:11;;;;;;;7.50;2.53;;;;;;;13.99;100.00;100753.56;5071181;28;20682;-70
2022/07/28 06:09:36;;;;;;;4.68;1.63;;;;;;;14.02;100.00;100748.09;5073266;28;20111;-69
2022/07/28 06:12:02;;;;;;;3.90;1.73;;;;;;;14.11;100.00;100748.41;5066037;28;20029;-70
2022/07/28 06:14:27;;;;;;;4.25;1.92;;;;;;;14.05;100.00;100738.19;5060092;28;20021;-70
2022/07/28 06:16:53;;;;;;;6.07;2.13;;;;;;;14.15;100.00;100743.78;5056125;28;20028;-70
2022/07/28 06:19:18;;;;;;;7.05;2.28;;;;;;;14.25;100.00;100745.78;5070439;28;20028;-70
2022/07/28 06:21:44;;;;;;;3.63;1.70;;;;;;;14.38;100.00;100753.00;5077020;28;20082;-70
2022/07/28 06:24:09;;;;;;;8.55;2.30;;;;;;;14.54;100.00;100757.28;5055433;28;20021;-70
2022/07/28 06:26:36;;;;;;;3.58;2.05;;;;;;;14.54;100.00;100735.25;5068013;28;20036;-69
2022/07/28 06:29:02;;;;;;;5.78;2.03;;;;;;;14.80;100.00;100753.06;5062843;28;20090;-72
2022/07/28 06:31:28;;;;;;;3.88;1.60;;;;;;;14.79;100.00;100741.63;5086283;28;20035;-71
2022/07/28 06:33:53;;;;;;;5.43;2.03;;;;;;;14.90;100.00;100750.69;5076602;28;20037;-69
2022/07/28 06:36:19;;;;;;;4.45;2.08;;;;;;;15.02;100.00;100752.53;5074248;28;20025;-72
2022/07/28 06:38:44;;;;;;;4.95;1.80;;;;;;;15.07;100.00;100750.47;5069415;28;20166;-70
2022/07/28 06:41:09;;;;;;;4.50;2.22;;;;;;;15.16;100.00;100749.88;5063552;28;20897;-70
2022/07/28 06:43:35;;;;;;;5.03;1.90;;;;;;;15.21;100.00;100746.00;5061293;28;20025;-70
2022/07/28 06:46:00;;;;;;;6.45;2.60;;;;;;;15.37;100.00;100758.25;5073205;28;20387;-73
2022/07/28 06:48:26;;;;;;;6.65;2.47;;;;;;;15.21;100.00;100727.44;5060565;28;20029;-70
2022/07/28 06:50:51;;;;;;;5.75;2.00;;;;;;;15.43;100.00;100756.06;5077922;28;20064;-70
2022/07/28 06:53:16;;;;;;;4.15;2.08;;;;;;;15.42;100.00;100756.16;5072938;28;20026;-70
2022/07/28 06:55:42;;;;;;;4.40;2.20;;;;;;;15.35;100.00;100756.56;5083987;28;20475;-69
2022/07/28 06:58:07;;;;;;;4.72;2.33;;;;;;;15.28;100.00;100747.28;5069552;28;20028;-70
2022/07/28 07:00:33;;;;;;;6.22;2.25;;;;;;;15.31;100.00;100749.75;5058623;28;20036;-70
2022/07/28 07:02:58;;;;;;;4.53;2.03;;;;;;;15.44;100.00;100762.22;5065116;28;20028;-71
2022/07/28 07:05:24;;;;;;;4.32;2.53;;;;;;;15.55;100.00;100757.09;5060407;28;20024;-70
2022/07/28 07:07:50;;;;;;;8.27;2.10;;;;;;;15.54;100.00;100763.34;5062711;28;20060;-70
2022/07/28 07:10:15;;;;;;;4.95;1.95;;;;;;;15.59;100.00;100758.59;5071403;28;20088;-71
2022/07/28 07:12:41;;;;;;;3.35;1.80;;;;;;;15.68;100.00;100760.66;5061426;28;20047;-70
2022/07/28 07:15:07;;;;;;;3.75;1.80;;;;;;;15.73;100.00;100756.75;5072078;28;20016;-73
2022/07/28 07:17:32;;;;;;;5.57;2.00;;;;;;;15.63;100.00;100734.47;5068161;28;20036;-70
2022/07/28 07:19:58;;;;;;;3.75;2.05;;;;;;;15.79;100.00;100736.94;5078575;28;20048;-70
2022/07/28 07:22:23;;;;;;;7.85;2.25;;;;;;;15.93;100.00;100758.06;5063147;28;20025;-70
2022/07/28 07:24:49;;;;;;;4.20;1.92;;;;;;;16.00;100.00;100753.22;5077763;28;20046;-71
2022/07/28 07:27:14;;;;;;;5.72;2.42;;;;;;;16.02;100.00;100741.56;5061573;28;20028;-71
2022/07/28 07:29:40;;;;;;;5.32;2.28;;;;;;;16.19;100.00;100748.38;5066409;28;20055;-69
2022/07/28 07:32:05;;;;;;;4.38;1.98;;;;;;;16.27;100.00;100749.56;5069159;28;20237;-70
2022/07/28 07:34:31;;;;;;;7.18;2.65;;;;;;;16.28;100.00;100740.66;5080062;28;20032;-70
2022/07/28 07:36:56;;;;;;;4.75;1.83;;;;;;;16.42;100.00;100747.66;5074997;28;20025;-70
2022/07/28 07:39:21;;;;;;;4.22;2.35;;;;;;;16.45;100.00;100738.66;5061959;28;20107;-70
2022/07/28 07:41:47;;;;;;;4.93;2.03;;;;;;;16.50;100.00;100725.91;5072429;28;20426;-70
2022/07/28 07:44:12;;;;;;;10.40;2.60;;;;;;;16.60;100.00;100732.28;5042748;28;20056;-70
2022/07/28 07:46:38;;;;;;;6.90;2.63;;;;;;;16.68;100.00;100724.66;5055763;28;20024;-70
2022/07/28 07:49:04;;;;;;;4.13;1.92;;;;;;;16.42;100.00;100652.19;5072046;28;20497;-69
2022/07/28 07:51:30;;;;;;;15.68;2.58;;;;;;;16.73;100.00;100699.47;5073096;28;20372;-70
2022/07/28 07:53:55;;;;;;;13.82;2.80;;;;;;;16.91;100.00;100715.91;5083574;28;20031;-72
2022/07/28 07:56:20;;;;;;;7.45;2.33;;;;;;;16.96;100.00;100724.41;5060307;28;20024;-71
2022/07/28 07:58:46;;;;;;;4.70;2.17;;;;;;;17.03;100.00;100723.03;5061580;28;20479;-71
2022/07/28 08:01:12;;;;;;;8.32;2.55;;;;;;;17.08;100.00;100726.19;5056955;28;20774;-72
2022/07/28 08:03:38;;;;;;;5.00;1.98;;;;;;;17.14;100.00;100728.38;5064457;28;20016;-70
2022/07/28 08:06:03;;;;;;;7.60;2.83;;;;;;;17.18;100.00;100745.81;5061909;28;20039;-71
2022/07/28 08:08:29;;;;;;;4.97;2.38;;;;;;;17.16;100.00;100734.47;5065069;28;20463;-71
2022/07/28 08:10:54;;;;;;;6.03;2.53;;;;;;;17.15;100.00;100716.81;5086796;28;20097;-71
2022/07/28 08:13:21;;;;;;;7.10;2.63;;;;;;;17.27;100.00;100726.53;5061511;28;20482;-72
2022/07/28 08:15:47;;;;;;;6.78;2.30;;;;;;;17.16;100.00;100691.97;5056279;28;20056;-73
2022/07/28 08:18:13;;;;;;;6.05;2.13;;;;;;;17.47;100.00;100734.88;5069583;28;20139;-71
2022/07/28 08:20:39;;;;;;;4.40;2.05;;;;;;;17.53;100.00;100737.09;5063524;28;20418;-71
2022/07/28 08:23:04;;;;;;;6.57;2.15;;;;;;;17.67;100.00;100743.13;5052176;28;20175;-71
2022/07/28 08:25:30;;;;;;;8.25;2.40;;;;;;;17.76;100.00;100745.09;5082353;28;20075;-73
2022/07/28 08:27:56;;;;;;;5.30;2.42;;;;;;;17.80;100.00;100743.06;5051290;28;20051;-75
2022/07/28 08:30:21;;;;;;;6.10;2.33;;;;;;;17.83;100.00;100732.19;5080591;28;20040;-72
2022/07/28 08:32:47;;;;;;;6.57;2.08;;;;;;;17.84;100.00;100723.25;5072284;28;20462;-74
2022/07/28 08:35:13;;;;;;;5.40;1.85;;;;;;;17.97;100.00;100734.66;5081522;28;20059;-71
2022/07/28 08:37:38;;;;;;;7.53;2.40;;;;;;;18.04;100.00;100719.09;5049163;28;20029;-72
2022/07/28 08:40:07;;;;;;;6.20;2.17;;;;;;;17.97;100.00;100699.25;5061127;28;20025;-71
2022/07/28 08:42:57;;;;;;;7.78;2.33;;;;;;;18.20;100.00;100720.47;5059380;28;20032;-74
2022/07/28 08:45:25;;;;;;;6.15;2.15;;;;;;;18.21;100.00;100703.53;5052298;28;20495;-73
2022/07/28 08:47:51;;;;;;;4.75;2.08;;;;;;;18.33;100.00;100699.06;5065569;28;20033;-73
2022/07/28 08:50:20;;;;;;;5.22;2.70;;;;;;;18.47;100.00;100701.50;5062731;28;20146;-74
2022/07/28 08:52:47;;;;;;;6.43;1.98;;;;;;;18.56;100.00;100706.13;5060051;28;20493;-71
2022/07/28 08:55:13;;;;;;;4.57;2.22;;;;;;;18.40;100.00;100668.34;5086877;28;20103;-71
2022/07/28 08:57:42;;;;;;;6.35;2.28;;;;;;;18.71;100.00;100694.28;5069931;28;20375;-71
2022/07/28 09:00:11;;;;;;;12.93;2.38;;;;;;;18.73;100.00;100675.53;5056871;28;20033;-72
2022/07/28 09:02:37;;;;;;;3.88;2.05;;;;;;;18.92;100.00;100694.41;5057745;28;20040;-73
2022/07/28 09:05:03;;;;;;;9.95;2.92;;;;;;;18.97;100.00;100705.53;5069191;28;20043;-72
2022/07/28 09:07:30;;;;;;;15.20;2.67;;;;;;;18.97;100.00;100694.88;5081315;28;20031;-72
2022/07/28 09:09:55;;;;;;;9.35;2.40;;;;;;;19.00;100.00;100694.63;5070624;28;20029;-71
2022/07/28 09:12:21;;;;;;;4.63;2.22;;;;;;;19.06;100.00;100699.44;5056980;28;20027;-73
2022/07/28 09:14:46;;;;;;;4.50;2.47;;;;;;;19.16;100.00;100700.41;5086640;27;20032;-72
2022/07/28 09:17:11;;;;;;;8.60;3.15;;;;;;;19.23;100.00;100701.59;5054678;28;20032;-72
2022/07/28 09:19:37;;;;;;;5.28;2.13;;;;;;;19.13;100.00;100666.00;5056523;28;20025;-72
2022/07/28 09:22:03;;;;;;;5.80;2.20;;;;;;;19.37;100.00;100689.81;5058789;28;20147;-71
2022/07/28 09:24:39;;;;;;;5.72;2.25;;;;;;;19.47;100.00;100697.97;5054550;28;20078;-72
2022/07/28 09:27:07;;;;;;;8.77;2.03;;;;;;;19.48;96.84;100680.97;5060614;28;20025;-73
2022/07/28 09:29:34;;;;;;;7.15;1.92;;;;;;;19.58;94.96;100687.22;5052604;28;20526;-73
2022/07/28 09:32:00;;;;;;;4.57;2.00;;;;;;;19.63;93.50;100685.91;5059106;28;20551;-73
2022/07/28 09:34:25;;;;;;;9.32;2.30;;;;;;;19.36;93.71;100606.34;5058308;28;20067;-73
2022/07/28 09:36:51;;;;;;;4.22;2.25;;;;;;;19.82;94.03;100664.69;5082138;28;20471;-72
2022/07/28 09:39:34;;;;;;;4.90;2.28;;;;;;;20.00;95.04;100659.63;5048409;28;20029;-70
2022/07/28 09:41:59;;;;;;;5.85;2.00;;;;;;;20.16;92.51;100665.34;5066598;28;20471;-72
2022/07/28 09:44:28;;;;;;;3.72;1.60;;;;;;;20.25;91.83;100664.56;5057308;28;20025;-71
2022/07/28 09:46:54;;;;;;;5.15;2.35;;;;;;;20.36;90.92;100672.53;5061740;28;20527;-72
2022/07/28 09:49:20;;;;;;;4.32;1.90;;;;;;;20.43;89.98;100677.31;5048491;28;20480;-71
2022/07/28 09:52:00;;;;;;;7.60;2.42;;;;;;;20.36;88.41;100651.16;5052492;28;20033;-70
2022/07/28 09:54:25;;;;;;;7.65;2.80;;;;;;;20.46;89.99;100669.91;5067313;28;20025;-70
2022/07/28 09:56:51;;;;;;;11.88;2.38;;;;;;;20.46;88.71;100653.88;5051665;28;20490;-69
2022/07/28 09:59:17;;;;;;;5.47;1.90;;;;;;;20.65;88.87;100659.28;5058986;28;20043;-70
2022/07/28 10:01:53;;;;;;;5.32;2.45;;;;;;;20.69;90.06;100662.53;5050902;28;20033;-70
2022/07/28 10:04:32;;;;;;;4.50;2.05;;;;;;;20.80;88.35;100665.09;5061187;28;20725;-70
2022/07/28 10:07:05;;;;;;;6.35;2.28;;;;;;;20.77;85.62;100660.88;5050055;28;20037;-72
2022/07/28 10:09:31;;;;;;;10.68;2.40;;;;;;;20.58;86.99;100641.28;5060999;28;20489;-72
2022/07/28 10:12:23;;;;;;;6.30;2.53;;;;;;;20.74;86.59;100665.66;5091576;28;20032;-73
2022/07/28 10:14:50;;;;;;;4.88;2.00;;;;;;;20.78;85.94;100664.41;5097835;28;20078;-73
2022/07/28 10:17:32;;;;;;;18.48;2.47;;;;;;;20.90;85.23;100661.50;5058099;28;20479;-71
2022/07/28 10:19:59;;;;;;;5.15;2.20;;;;;;;21.11;87.22;100652.56;5052684;28;20025;-71
2022/07/28 10:22:32;;;;;;;6.32;2.00;;;;;;;21.26;82.89;100643.16;5051771;28;20072;-73
2022/07/28 10:25:00;;;;;;;4.55;1.88;;;;;;;21.30;81.66;100642.75;5061549;28;20056;-71
2022/07/28 10:27:26;;;;;;;7.22;2.22;;;;;;;21.61;81.86;100667.53;5049798;28;20025;-71
2022/07/28 10:29:57;;;;;;;4.00;2.00;;;;;;;21.72;80.84;100651.34;5080341;28;20480;-70
2022/07/28 10:32:23;;;;;;;5.90;1.98;;;;;;;21.61;80.37;100618.53;5080264;28;20055;-71
2022/07/28 10:35:03;;;;;;;13.07;2.22;;;;;;;21.85;80.04;100643.84;5056716;28;20458;-71
2022/07/28 10:37:31;;;;;;;5.03;2.20;;;;;;;22.04;78.78;100653.72;5059912;28;20036;-73
2022/07/28 10:40:06;;;;;;;7.00;1.92;;;;;;;21.98;80.44;100635.56;5055042;28;20486;-71
2022/07/28 10:42:32;;;;;;;9.10;2.63;;;;;;;22.15;79.27;100658.91;5054180;28;20443;-73
2022/07/28 10:44:58;;;;;;;3.53;1.90;;;;;;;22.12;78.98;100661.88;5060845;28;20352;-71
2022/07/28 10:47:26;;;;;;;6.97;2.28;;;;;;;22.07;79.68;100640.03;5063934;28;20044;-71
2022/07/28 10:49:51;;;;;;;6.10;2.38;;;;;;;22.14;79.04;100646.50;5071299;28;20039;-71
2022/07/28 10:52:17;;;;;;;4.15;1.95;;;;;;;22.33;78.32;100654.50;5069503;28;20028;-72
2022/07/28 10:55:06;;;;;;;6.25;2.10;;;;;;;22.39;76.44;100647.69;5056303;28;20021;-71
2022/07/28 10:57:31;;;;;;;8.98;2.63;;;;;;;22.26;78.00;100626.63;5064529;28;20037;-71
2022/07/28 11:00:10;;;;;;;5.00;2.08;;;;;;;22.42;76.87;100621.47;5051787;28;20471;-73
2022/07/28 11:02:54;;;;;;;3.50;1.83;;;;;;;22.57;75.14;100642.41;5066774;28;20533;-72
2022/07/28 11:05:26;;;;;;;6.53;2.15;;;;;;;22.58;76.44;100638.72;5084892;28;20546;-71
2022/07/28 11:07:51;;;;;;;10.27;2.50;;;;;;;22.35;74.88;100603.44;5071889;28;20119;-73
2022/07/28 11:10:19;;;;;;;5.07;1.90;;;;;;;22.36;75.87;100597.97;5079718;28;20028;-72
2022/07/28 11:12:48;;;;;;;6.05;2.38;;;;;;;22.65;74.77;100605.00;5065162;28;20437;-73
2022/07/28 11:15:24;;;;;;;4.50;2.13;;;;;;;22.89;75.57;100630.28;5083570;28;20430;-72
2022/07/28 11:17:57;;;;;;;7.13;2.50;;;;;;;23.07;73.31;100605.34;5065600;28;20056;-73
2022/07/28 11:20:51;;;;;;;6.15;2.13;;;;;;;23.31;73.00;100619.84;5066797;28;20024;-70
2022/07/28 11:23:46;;;;;;;9.65;2.42;;;;;;;23.39;71.48;100617.22;5062621;28;20040;-71